Decoded Metar for ETHF (FRITZLAR in GERMANY) (IATA:N/A) | Meteo·Mobile Aviation Weather
aviador You're here:

ETHF Decoded Metar

FRITZLAR in GERMANY
Report Time2019-01-19 01:20:00
UTC Time2019-01-19 01:49:30
Flight Rules vfr VFR
Wind310° at 04 kt
W.Decomp.*RWY 30: 4.0 kt HW 0.6 kt RCW
W.Rank310° ranks 2
Current wind is below 310° avg. (4.5)
Visibility9999 m
Phenomena:N/A
Clouds:Broken 200 Hf
Expected CloudBase > 800 ft AGL from Temp-Dew spread
Ceiling20,000 ft
Temp-5°C (ISA -19)
Dew Point-7°C (86% RH)
AAT-9.2°C
QNH1020 hPa
Density Alt-1,916 ft
Elevation594 ft
Report Wrong Elevation
Raw Report
METAR ETHF 190120Z 31004KT 9999 BKN200 M05/M07 Q1020 BLACKBLU+=

Extra information for ETHF:More info

Metar Taf Metar & Taf Last 4 Metars F.Rules Stats Wind Profile Meteogram Temp Stats Airport Information Weather charts Add Link Nearby VenuesMetar ALERT Operation Metar Decoded Social comments